CheckWX is a tool to help pilots better visualize weather data.  It is not intended as a substitute for an official pre-flight weather briefing.

16:03:16 UTC

KSHV TAF
Shreveport Regional Airport
Shreveport, Louisiana, USA
KSHV 211131Z 2112/2212 02009KT P6SM SKC FM220000 VRB03KT P6SM FEW250 FM220600 00000KT P6SM FEW150 SCT250

Feb-21@
12:00 UTC

Feb-21 @ 12:00 UTC

Feb-22@
00:00 UTC

Feb-22 @ 00:00 UTC

KSHV 211131Z 2112/2212 02009KT P6SM SKC
Wind
  • 020° at 9 KTS
Cloud Levels
  • Clear skies

Feb-22@
00:00 UTC

Feb-22 @ 00:00 UTC

Feb-22@
06:00 UTC

Feb-22 @ 06:00 UTC

FM220000 VRB03KT P6SM FEW250

From

From Standard forecast or significant change

Wind
  • Variable at 3 KTS
Cloud Levels
  • Few at 25,000' AGL

Feb-22@
06:00 UTC

Feb-22 @ 06:00 UTC

Feb-22@
12:00 UTC

Feb-22 @ 12:00 UTC

FM220600 00000KT P6SM FEW150 SCT250

From

From Standard forecast or significant change

Cloud Levels
  • Few at 15,000' AGL
  • Scattered at 25,000' AGL